Time;durP1;ratioP1;P1;durP2;ratioP2;P2;SDS_P1;SDS_P2;PMS_P1;PMS_P2;Temp;Humidity;BMP_temperature;BMP_pressure;BME280_temperature;BME280_humidity;BME280_pressure;Samples;Min_cycle;Max_cycle;Signal;HPM_P1;HPM_P2
2022/10/23 00:00:13;;;;;;;2.05;0.98;;;20.70;98.10;;;;;;6183926;23;45215;-71
2022/10/23 00:02:39;;;;;;;0.88;0.73;;;20.70;98.10;;;;;;6183180;23;45272;-72
2022/10/23 00:05:07;;;;;;;1.55;0.70;;;20.70;98.20;;;;;;6183612;23;45575;-72
2022/10/23 00:07:33;;;;;;;1.55;1.08;;;20.70;98.20;;;;;;6183073;23;47070;-72
2022/10/23 00:10:00;;;;;;;2.00;0.90;;;20.70;98.10;;;;;;6183806;23;45250;-72
2022/10/23 00:12:27;;;;;;;2.55;1.02;;;20.70;98.20;;;;;;6183841;23;45337;-71
2022/10/23 00:14:55;;;;;;;1.27;0.85;;;20.70;98.20;;;;;;6183785;23;45745;-71
2022/10/23 00:17:22;;;;;;;1.92;0.90;;;20.70;98.10;;;;;;6181823;23;47560;-72
2022/10/23 00:19:50;;;;;;;2.00;0.80;;;20.70;98.00;;;;;;6182687;23;45268;-72
2022/10/23 00:22:16;;;;;;;1.20;0.80;;;20.70;98.00;;;;;;6182660;23;45254;-72
2022/10/23 00:24:43;;;;;;;1.92;1.00;;;20.70;98.10;;;;;;6183465;23;45211;-72
2022/10/23 00:27:10;;;;;;;1.30;0.90;;;20.70;98.10;;;;;;6182531;23;47015;-73
2022/10/23 00:29:37;;;;;;;2.83;0.90;;;20.70;98.00;;;;;;6182149;23;45357;-72
2022/10/23 00:32:05;;;;;;;1.85;1.10;;;20.70;98.00;;;;;;6183025;23;45245;-72
2022/10/23 00:34:31;;;;;;;1.48;0.70;;;20.70;98.00;;;;;;6183050;23;45329;-71
2022/10/23 00:36:58;;;;;;;2.35;0.90;;;20.70;97.90;;;;;;6181747;23;47520;-72
2022/10/23 00:39:25;;;;;;;1.63;0.70;;;20.70;97.80;;;;;;6183114;23;45227;-72
2022/10/23 00:41:52;;;;;;;1.27;0.70;;;20.70;97.70;;;;;;6182941;23;45132;-72
2022/10/23 00:44:56;;;;;;;1.67;0.77;;;20.70;97.90;;;;;;6182090;23;45488;-72
2022/10/23 00:47:24;;;;;;;3.00;0.90;;;20.70;97.90;;;;;;6182553;23;47172;-72
2022/10/23 00:49:51;;;;;;;1.38;0.80;;;20.70;98.10;;;;;;6183065;23;45205;-72
2022/10/23 00:52:18;;;;;;;1.35;0.60;;;20.70;97.90;;;;;;6181954;23;45166;-72
2022/10/23 00:54:44;;;;;;;1.13;0.65;;;20.70;98.10;;;;;;6183376;23;45323;-71
2022/10/23 00:57:14;;;;;;;1.33;0.82;;;20.70;98.00;;;;;;6181648;23;46594;-71
2022/10/23 00:59:41;;;;;;;2.03;0.80;;;20.70;98.00;;;;;;6183040;23;45690;-72
2022/10/23 01:02:08;;;;;;;1.15;0.70;;;20.70;98.00;;;;;;6181830;23;45215;-72
2022/10/23 01:04:38;;;;;;;1.55;0.95;;;20.70;98.10;;;;;;6183692;23;45487;-72
2022/10/23 01:07:14;;;;;;;0.85;0.60;;;20.70;98.00;;;;;;6182181;23;46049;-72
2022/10/23 01:09:46;;;;;;;1.42;0.80;;;20.70;98.10;;;;;;6183564;23;45916;-71
2022/10/23 01:12:22;;;;;;;1.08;0.80;;;20.70;98.00;;;;;;6183324;23;45307;-72
2022/10/23 01:14:58;;;;;;;1.17;0.82;;;20.70;97.90;;;;;;6183524;23;45317;-72
2022/10/23 01:17:30;;;;;;;0.90;0.65;;;20.70;97.80;;;;;;6182749;23;46194;-73
2022/10/23 01:20:10;;;;;;;1.42;0.85;;;20.70;98.10;;;;;;6183245;23;45213;-72
2022/10/23 01:22:51;;;;;;;1.55;0.82;;;20.70;97.80;;;;;;6183596;23;45282;-73
2022/10/23 01:25:29;;;;;;;1.25;0.70;;;20.70;97.80;;;;;;6183248;23;45427;-72
2022/10/23 01:28:02;;;;;;;2.28;1.08;;;20.70;97.80;;;;;;6183297;23;48567;-71
2022/10/23 01:30:30;;;;;;;1.65;0.73;;;20.70;97.80;;;;;;6182866;23;45321;-72
2022/10/23 01:33:05;;;;;;;1.17;0.70;;;20.70;97.70;;;;;;6183726;23;45288;-72
2022/10/23 01:35:36;;;;;;;1.20;0.80;;;20.70;97.70;;;;;;6182829;23;45390;-72
2022/10/23 01:38:09;;;;;;;0.77;0.68;;;20.70;97.60;;;;;;6182758;23;47552;-72
2022/10/23 01:40:44;;;;;;;1.95;0.77;;;20.70;97.50;;;;;;6183394;23;45201;-72
2022/10/23 01:43:16;;;;;;;0.60;0.60;;;20.70;97.70;;;;;;6182909;23;45350;-72
2022/10/23 01:45:47;;;;;;;1.35;0.70;;;20.70;97.70;;;;;;6182567;23;45237;-72
2022/10/23 01:48:18;;;;;;;1.63;0.80;;;20.70;97.50;;;;;;6182952;23;46914;-72
2022/10/23 01:50:46;;;;;;;3.05;0.77;;;20.70;97.50;;;;;;6182741;23;45209;-72
2022/10/23 01:53:13;;;;;;;1.50;0.80;;;20.70;97.60;;;;;;6183037;23;45355;-72
2022/10/23 01:55:42;;;;;;;1.02;0.77;;;20.70;97.70;;;;;;6183203;23;45389;-73
2022/10/23 01:58:12;;;;;;;1.25;0.70;;;20.70;97.60;;;;;;6183334;23;46558;-72
2022/10/23 02:00:40;;;;;;;0.88;0.70;;;20.70;97.80;;;;;;6180792;23;45349;-72
2022/10/23 02:03:09;;;;;;;0.80;0.57;;;20.70;97.70;;;;;;6181006;23;45476;-72
2022/10/23 02:05:38;;;;;;;1.77;0.70;;;20.70;97.60;;;;;;6181447;23;45402;-72
2022/10/23 02:08:05;;;;;;;3.40;0.95;;;20.70;97.60;;;;;;6182469;23;45449;-72
2022/10/23 02:10:38;;;;;;;1.02;0.80;;;20.70;97.50;;;;;;6181839;23;45348;-72
2022/10/23 02:13:10;;;;;;;1.35;0.68;;;20.70;97.40;;;;;;6183215;23;45222;-72
2022/10/23 02:15:45;;;;;;;0.90;0.70;;;20.70;97.40;;;;;;6183233;23;45362;-72
2022/10/23 02:18:24;;;;;;;1.33;0.70;;;20.70;97.50;;;;;;6182627;23;48271;-72
2022/10/23 02:20:56;;;;;;;1.58;1.00;;;20.70;97.50;;;;;;6183050;23;45856;-72
2022/10/23 02:23:30;;;;;;;1.58;0.85;;;20.70;97.50;;;;;;6182732;23;45259;-71
2022/10/23 02:26:03;;;;;;;1.50;0.98;;;20.70;97.50;;;;;;6183047;23;45316;-72
2022/10/23 02:28:36;;;;;;;2.50;0.80;;;20.70;97.20;;;;;;6182101;23;46565;-72
2022/10/23 02:31:08;;;;;;;1.10;0.80;;;20.70;97.20;;;;;;6182612;23;45294;-72
2022/10/23 02:33:35;;;;;;;1.00;0.77;;;20.70;97.30;;;;;;6186406;23;45329;-71
2022/10/23 02:36:02;;;;;;;1.20;0.65;;;20.70;97.30;;;;;;6182838;23;45222;-72
2022/10/23 02:38:33;;;;;;;0.95;0.70;;;20.70;97.10;;;;;;6182985;23;45356;-72
2022/10/23 02:41:16;;;;;;;1.15;0.70;;;20.70;97.20;;;;;;6181288;23;45325;-72
2022/10/23 02:43:51;;;;;;;1.33;0.80;;;20.70;97.00;;;;;;6182569;23;45437;-72
2022/10/23 02:46:28;;;;;;;1.63;0.80;;;20.70;97.20;;;;;;6181660;23;45339;-72
2022/10/23 02:49:01;;;;;;;2.60;0.80;;;20.70;97.10;;;;;;6183166;23;46404;-72
2022/10/23 02:51:35;;;;;;;0.82;0.65;;;20.60;97.30;;;;;;6181678;23;45254;-72
2022/10/23 02:54:07;;;;;;;1.80;0.80;;;20.60;97.30;;;;;;6182980;23;45213;-72
2022/10/23 02:56:40;;;;;;;1.05;0.80;;;20.70;97.50;;;;;;6183365;23;45328;-72
2022/10/23 02:59:13;;;;;;;1.20;0.80;;;20.70;97.40;;;;;;6182608;23;45245;-72
2022/10/23 03:01:50;;;;;;;0.65;0.60;;;20.70;97.30;;;;;;6182492;23;45309;-72
2022/10/23 03:04:19;;;;;;;2.05;0.60;;;20.70;97.10;;;;;;6182756;23;45389;-72
2022/10/23 03:06:46;;;;;;;1.45;0.80;;;20.70;97.20;;;;;;6183636;23;45538;-72
2022/10/23 03:09:13;;;;;;;1.13;0.65;;;20.70;97.20;;;;;;6183843;23;45291;-72
2022/10/23 03:11:39;;;;;;;0.90;0.60;;;20.70;97.20;;;;;;6184181;23;45324;-72
2022/10/23 03:14:07;;;;;;;0.95;0.70;;;20.70;97.10;;;;;;6184482;23;45340;-72
2022/10/23 03:16:33;;;;;;;1.35;1.15;;;20.70;97.00;;;;;;6183771;23;45527;-72
2022/10/23 03:19:01;;;;;;;1.65;0.75;;;20.70;97.10;;;;;;6184926;23;46588;-72
2022/10/23 03:21:28;;;;;;;0.95;0.68;;;20.70;97.00;;;;;;6183542;23;45434;-72
2022/10/23 03:23:55;;;;;;;1.00;0.60;;;20.70;96.80;;;;;;6184522;23;45305;-72
2022/10/23 03:26:22;;;;;;;1.55;0.90;;;20.70;96.90;;;;;;6183925;23;45277;-72
2022/10/23 03:28:48;;;;;;;3.05;1.00;;;20.70;97.00;;;;;;6184323;23;46573;-72
2022/10/23 03:31:15;;;;;;;0.98;0.82;;;20.70;96.90;;;;;;6184173;23;45344;-72
2022/10/23 03:33:42;;;;;;;2.55;0.73;;;20.70;96.90;;;;;;6183451;23;45329;-72
2022/10/23 03:36:11;;;;;;;1.25;0.55;;;20.70;96.80;;;;;;6182892;23;45345;-73
2022/10/23 03:38:37;;;;;;;0.75;0.63;;;20.60;96.80;;;;;;6183024;23;46281;-72
2022/10/23 03:41:04;;;;;;;1.23;0.70;;;20.70;96.70;;;;;;6183860;23;45178;-72
2022/10/23 03:43:31;;;;;;;1.48;0.90;;;20.70;97.00;;;;;;6183831;23;45222;-72
2022/10/23 03:45:59;;;;;;;0.85;0.60;;;20.70;97.00;;;;;;6183402;23;45181;-73
2022/10/23 03:48:26;;;;;;;0.55;0.50;;;20.70;97.00;;;;;;6184128;23;45544;-71
2022/10/23 03:50:55;;;;;;;0.60;0.50;;;20.70;97.00;;;;;;6182544;23;45296;-72
2022/10/23 03:53:23;;;;;;;1.40;0.75;;;20.70;97.00;;;;;;6184453;23;45345;-72
2022/10/23 03:55:50;;;;;;;0.80;0.60;;;20.70;96.90;;;;;;6183536;23;45276;-72
2022/10/23 03:58:17;;;;;;;1.63;0.65;;;20.70;96.80;;;;;;6184326;23;46280;-73
2022/10/23 04:00:43;;;;;;;0.63;0.55;;;20.70;96.90;;;;;;6183882;23;45253;-72
2022/10/23 04:03:10;;;;;;;0.98;0.55;;;20.70;97.00;;;;;;6183862;23;45255;-72
2022/10/23 04:05:38;;;;;;;0.70;0.60;;;20.70;96.80;;;;;;6184357;23;45269;-74
2022/10/23 04:08:05;;;;;;;1.38;0.77;;;20.70;96.80;;;;;;6182398;23;46283;-73
2022/10/23 04:10:33;;;;;;;1.38;0.80;;;20.70;96.90;;;;;;6182631;23;45325;-72
2022/10/23 04:13:00;;;;;;;0.82;0.50;;;20.70;96.80;;;;;;6183897;23;45612;-72
2022/10/23 04:15:26;;;;;;;1.98;0.80;;;20.70;96.60;;;;;;6186510;23;45204;-73
2022/10/23 04:17:53;;;;;;;1.00;0.70;;;20.70;96.50;;;;;;6183660;23;47182;-72
2022/10/23 04:20:20;;;;;;;1.50;0.60;;;20.70;96.60;;;;;;6183970;23;45316;-72
2022/10/23 04:22:47;;;;;;;1.27;0.60;;;20.60;96.50;;;;;;6184188;23;45305;-72
2022/10/23 04:25:15;;;;;;;0.47;0.47;;;20.70;96.70;;;;;;6183959;23;45245;-72
2022/10/23 04:27:43;;;;;;;0.57;0.43;;;20.70;96.60;;;;;;6183565;23;46953;-72
2022/10/23 04:30:11;;;;;;;0.80;0.57;;;20.60;96.50;;;;;;6182851;23;45292;-72
2022/10/23 04:32:38;;;;;;;0.85;0.60;;;20.60;96.40;;;;;;6180850;23;45280;-72
2022/10/23 04:35:06;;;;;;;0.52;0.50;;;20.60;96.60;;;;;;6184179;23;45499;-72
2022/10/23 04:37:32;;;;;;;0.50;0.43;;;20.60;96.40;;;;;;6182105;23;47089;-72
2022/10/23 04:39:59;;;;;;;2.47;0.60;;;20.60;96.50;;;;;;6184079;23;45277;-72
2022/10/23 04:42:26;;;;;;;1.23;0.80;;;20.70;96.50;;;;;;6182640;23;45351;-72
2022/10/23 04:44:54;;;;;;;0.88;0.60;;;20.70;96.70;;;;;;6183566;23;45620;-72
2022/10/23 04:47:21;;;;;;;1.15;0.73;;;20.70;96.70;;;;;;6182204;23;46248;-72
2022/10/23 04:49:47;;;;;;;0.55;0.43;;;20.70;96.60;;;;;;6183920;23;45260;-72
2022/10/23 04:52:15;;;;;;;0.88;0.50;;;20.70;96.40;;;;;;6183267;23;45247;-72
2022/10/23 04:54:41;;;;;;;0.85;0.43;;;20.70;96.50;;;;;;6183677;23;45573;-72
2022/10/23 04:57:08;;;;;;;1.10;0.80;;;20.70;96.50;;;;;;6183061;23;47463;-72
2022/10/23 04:59:35;;;;;;;1.05;0.50;;;20.70;96.60;;;;;;6183977;23;45344;-72
2022/10/23 05:02:03;;;;;;;0.88;0.60;;;20.70;96.50;;;;;;6184023;23;45309;-72
2022/10/23 05:04:30;;;;;;;2.08;0.60;;;20.70;96.50;;;;;;6183850;23;45285;-72
2022/10/23 05:06:57;;;;;;;1.15;0.60;;;20.70;96.40;;;;;;6180608;23;47359;-72
2022/10/23 05:09:23;;;;;;;0.85;0.50;;;20.70;96.50;;;;;;6178688;23;45261;-72
2022/10/23 05:11:50;;;;;;;3.00;0.70;;;20.70;96.40;;;;;;6178171;23;45405;-72
2022/10/23 05:14:17;;;;;;;1.05;0.70;;;20.70;96.60;;;;;;6180054;23;45377;-73
2022/10/23 05:16:48;;;;;;;1.40;0.57;;;20.70;96.20;;;;;;6178531;23;47896;-72
2022/10/23 05:19:20;;;;;;;0.60;0.40;;;20.70;96.30;;;;;;6177978;23;45248;-73
2022/10/23 05:21:50;;;;;;;0.55;0.40;;;20.70;96.10;;;;;;6177723;23;45298;-72
2022/10/23 05:24:17;;;;;;;0.80;0.63;;;20.70;96.10;;;;;;6179334;23;45261;-73
2022/10/23 05:26:43;;;;;;;0.75;0.50;;;20.70;96.10;;;;;;6179324;23;46236;-72
2022/10/23 05:29:10;;;;;;;0.70;0.50;;;20.70;96.10;;;;;;6177494;23;45422;-72
2022/10/23 05:31:37;;;;;;;1.45;0.60;;;20.70;96.30;;;;;;6179217;23;45496;-72
2022/10/23 05:34:04;;;;;;;1.27;0.70;;;20.60;96.10;;;;;;6178139;23;45245;-72
2022/10/23 05:36:34;;;;;;;1.85;0.63;;;20.70;96.10;;;;;;6178460;23;47760;-72
2022/10/23 05:39:01;;;;;;;0.55;0.40;;;20.60;96.30;;;;;;6180440;23;45323;-72
2022/10/23 05:41:28;;;;;;;0.50;0.40;;;20.70;96.40;;;;;;6180771;23;45363;-73
2022/10/23 05:43:55;;;;;;;1.08;0.52;;;20.70;96.30;;;;;;6182830;23;45350;-72
2022/10/23 05:46:22;;;;;;;0.85;0.55;;;20.70;96.10;;;;;;6182444;23;45547;-72
2022/10/23 05:48:50;;;;;;;0.98;0.60;;;20.70;96.20;;;;;;6183510;23;45385;-73
2022/10/23 05:51:21;;;;;;;3.08;0.50;;;20.70;96.10;;;;;;6182254;23;45305;-73
2022/10/23 05:53:49;;;;;;;1.27;0.50;;;20.70;96.00;;;;;;6183251;23;45356;-72
2022/10/23 05:56:16;;;;;;;2.20;0.70;;;20.70;96.00;;;;;;6182739;23;46398;-73
2022/10/23 05:58:43;;;;;;;0.88;0.57;;;20.70;96.00;;;;;;6185087;23;45315;-72
2022/10/23 06:01:12;;;;;;;1.77;0.70;;;20.70;96.10;;;;;;6183208;23;45388;-72
2022/10/23 06:03:39;;;;;;;0.60;0.45;;;20.70;95.90;;;;;;6182960;23;45387;-72
2022/10/23 06:06:07;;;;;;;0.52;0.50;;;20.70;95.90;;;;;;6183177;23;46042;-72
2022/10/23 06:08:34;;;;;;;0.90;0.52;;;20.70;95.90;;;;;;6183377;23;45253;-72
2022/10/23 06:11:08;;;;;;;0.88;0.55;;;20.70;95.80;;;;;;6183451;23;45238;-72
2022/10/23 06:13:35;;;;;;;0.98;0.60;;;20.60;95.70;;;;;;6184143;23;45257;-72
2022/10/23 06:16:09;;;;;;;1.25;0.70;;;20.60;95.60;;;;;;6182849;23;47370;-73
2022/10/23 06:18:36;;;;;;;0.98;0.60;;;20.60;95.70;;;;;;6183768;23;46074;-72
2022/10/23 06:21:03;;;;;;;0.77;0.40;;;20.60;95.80;;;;;;6183606;23;45154;-72
2022/10/23 06:23:31;;;;;;;0.90;0.45;;;20.60;95.80;;;;;;6183863;23;45257;-72
2022/10/23 06:25:57;;;;;;;0.50;0.40;;;20.60;96.00;;;;;;6182844;23;46655;-72
2022/10/23 06:28:26;;;;;;;1.98;0.60;;;20.60;95.80;;;;;;6182217;23;45375;-73
2022/10/23 06:30:53;;;;;;;0.73;0.50;;;20.60;95.80;;;;;;6182636;23;45205;-72
2022/10/23 06:33:20;;;;;;;0.60;0.60;;;20.60;95.90;;;;;;6182312;23;45551;-72
2022/10/23 06:35:46;;;;;;;0.40;0.40;;;20.60;96.10;;;;;;6183060;23;45485;-72
2022/10/23 06:38:13;;;;;;;2.17;0.55;;;20.60;96.20;;;;;;6180897;23;45364;-72
2022/10/23 06:40:40;;;;;;;0.77;0.40;;;20.60;96.00;;;;;;6183625;23;45325;-72
2022/10/23 06:43:08;;;;;;;1.13;0.60;;;20.60;96.20;;;;;;6184661;23;46565;-72
2022/10/23 06:45:36;;;;;;;0.57;0.57;;;20.60;96.10;;;;;;6184131;23;47510;-72
2022/10/23 06:48:03;;;;;;;0.98;0.40;;;20.60;96.10;;;;;;6183944;23;45680;-73
2022/10/23 06:50:30;;;;;;;0.70;0.50;;;20.60;96.20;;;;;;6183685;23;45415;-72
2022/10/23 06:52:57;;;;;;;1.08;0.50;;;20.60;96.20;;;;;;6184906;23;45403;-72
2022/10/23 06:55:24;;;;;;;1.65;0.50;;;20.60;96.10;;;;;;6184711;23;46584;-72
2022/10/23 06:57:51;;;;;;;0.77;0.55;;;20.60;96.20;;;;;;6183974;23;45345;-73
2022/10/23 07:00:17;;;;;;;1.02;0.40;;;20.60;96.10;;;;;;6184061;23;45266;-72
2022/10/23 07:02:46;;;;;;;0.82;0.60;;;20.60;96.10;;;;;;6183615;23;45492;-72
2022/10/23 07:05:12;;;;;;;1.58;0.52;;;20.70;96.10;;;;;;6183866;23;47451;-72
2022/10/23 07:07:39;;;;;;;1.67;0.60;;;20.60;96.00;;;;;;6183197;23;45189;-72
2022/10/23 07:10:07;;;;;;;0.85;0.60;;;20.60;95.90;;;;;;6183878;23;45228;-72
2022/10/23 07:12:33;;;;;;;0.68;0.40;;;20.60;96.00;;;;;;6184752;23;45361;-72
2022/10/23 07:15:00;;;;;;;0.80;0.65;;;20.60;96.00;;;;;;6184012;23;46588;-72
2022/10/23 07:17:28;;;;;;;0.55;0.38;;;20.70;95.90;;;;;;6183467;23;45157;-72
2022/10/23 07:19:56;;;;;;;1.08;0.40;;;20.70;95.90;;;;;;6184550;23;45368;-72
2022/10/23 07:22:23;;;;;;;0.60;0.40;;;20.60;95.90;;;;;;6183516;23;45292;-72
2022/10/23 07:24:50;;;;;;;2.25;0.50;;;20.60;95.90;;;;;;6183846;23;46547;-72
2022/10/23 07:27:17;;;;;;;0.93;0.50;;;20.60;95.80;;;;;;6183071;23;45399;-72
2022/10/23 07:29:43;;;;;;;0.93;0.50;;;20.60;96.00;;;;;;6184345;23;45171;-72
2022/10/23 07:32:10;;;;;;;0.40;0.40;;;20.60;96.00;;;;;;6184221;23;45276;-72
2022/10/23 07:34:37;;;;;;;0.40;0.40;;;20.60;95.80;;;;;;6183530;23;46352;-72
2022/10/23 07:37:05;;;;;;;0.63;0.40;;;20.60;96.00;;;;;;6183219;23;46074;-72
2022/10/23 07:39:32;;;;;;;0.77;0.47;;;20.60;95.80;;;;;;6183657;23;45288;-72
2022/10/23 07:41:59;;;;;;;0.63;0.50;;;20.60;96.10;;;;;;6183849;23;45331;-72
2022/10/23 07:44:26;;;;;;;1.75;0.50;;;20.60;96.10;;;;;;6182973;23;48528;-72
2022/10/23 07:46:52;;;;;;;0.50;0.40;;;20.60;96.00;;;;;;6182380;23;45276;-72
2022/10/23 07:49:19;;;;;;;0.47;0.47;;;20.60;95.80;;;;;;6184425;23;45305;-72
2022/10/23 07:51:46;;;;;;;1.63;0.60;;;20.60;96.00;;;;;;6155531;23;45290;-72
2022/10/23 07:54:14;;;;;;;10.35;1.10;;;20.60;95.40;;;;;;6185034;23;45194;-72
2022/10/23 07:56:41;;;;;;;3.17;0.80;;;20.70;95.80;;;;;;6183367;23;45301;-69
2022/10/23 07:59:11;;;;;;;11.23;1.40;;;20.70;95.40;;;;;;6185009;23;45410;-73
2022/10/23 08:01:38;;;;;;;4.88;0.90;;;20.70;95.40;;;;;;6186402;23;45210;-73
2022/10/23 08:04:06;;;;;;;8.50;1.17;;;20.70;95.40;;;;;;6184538;23;47509;-73
2022/10/23 08:06:34;;;;;;;6.35;1.15;;;20.70;95.50;;;;;;6185383;23;45460;-73
2022/10/23 08:09:01;;;;;;;5.97;0.60;;;20.70;95.40;;;;;;6185210;23;45324;-72
2022/10/23 08:11:34;;;;;;;3.80;0.80;;;20.70;95.30;;;;;;6186246;23;45202;-73
2022/10/23 08:14:03;;;;;;;3.90;0.70;;;20.60;95.20;;;;;;6185127;23;46979;-72
2022/10/23 08:16:30;;;;;;;2.55;0.60;;;20.70;95.20;;;;;;6185163;23;45255;-73
2022/10/23 08:18:58;;;;;;;1.58;0.75;;;20.70;95.30;;;;;;6185817;23;45182;-72
2022/10/23 08:21:30;;;;;;;2.28;0.70;;;20.70;94.80;;;;;;6184899;23;45382;-72
2022/10/23 08:23:59;;;;;;;2.65;0.95;;;20.70;94.90;;;;;;6185100;23;45266;-72
2022/10/23 08:26:28;;;;;;;1.48;0.80;;;20.70;94.30;;;;;;6184539;23;45352;-73
2022/10/23 08:28:58;;;;;;;0.50;0.32;;;20.70;94.30;;;;;;6184749;23;45378;-72
2022/10/23 08:31:25;;;;;;;2.38;0.60;;;20.70;94.30;;;;;;6188050;23;45262;-72
2022/10/23 08:33:54;;;;;;;1.13;0.50;;;20.70;94.30;;;;;;6184858;23;47760;-72
2022/10/23 08:36:25;;;;;;;6.82;0.60;;;20.70;94.30;;;;;;6185387;23;45182;-73
2022/10/23 08:38:53;;;;;;;1.70;0.70;;;20.70;94.20;;;;;;6184720;23;45235;-73
2022/10/23 08:41:26;;;;;;;1.45;0.57;;;20.70;94.10;;;;;;6185290;23;45380;-73
2022/10/23 08:44:01;;;;;;;1.95;0.70;;;20.70;94.00;;;;;;6185011;23;46298;-72
2022/10/23 08:46:33;;;;;;;0.77;0.55;;;20.70;93.80;;;;;;6184232;23;45515;-73
2022/10/23 08:49:14;;;;;;;1.77;0.70;;;20.70;93.70;;;;;;6186492;23;45247;-73
2022/10/23 08:51:43;;;;;;;1.83;0.40;;;20.70;93.70;;;;;;6185866;23;45293;-72
2022/10/23 08:54:16;;;;;;;0.52;0.52;;;20.70;93.80;;;;;;6185529;23;46644;-73
2022/10/23 08:56:50;;;;;;;0.80;0.50;;;20.70;93.70;;;;;;6186082;23;45329;-73
2022/10/23 08:59:26;;;;;;;0.93;0.50;;;20.70;93.70;;;;;;6186012;23;45261;-73
2022/10/23 09:02:11;;;;;;;0.52;0.40;;;20.70;93.70;;;;;;6186296;23;45525;-72
2022/10/23 09:04:37;;;;;;;1.38;0.55;;;20.70;93.70;;;;;;6184737;23;46766;-72
2022/10/23 09:07:10;;;;;;;1.75;0.70;;;20.70;93.80;;;;;;6185701;23;45231;-72
2022/10/23 09:09:55;;;;;;;0.80;0.55;;;20.70;93.70;;;;;;6185858;23;45431;-73
2022/10/23 09:12:24;;;;;;;1.25;0.57;;;20.70;93.80;;;;;;6186156;23;45229;-73
2022/10/23 09:15:03;;;;;;;1.15;0.40;;;20.70;93.80;;;;;;6185297;23;46792;-73
2022/10/23 09:17:32;;;;;;;1.60;0.60;;;20.80;93.90;;;;;;6185602;23;45153;-73
2022/10/23 09:20:10;;;;;;;0.63;0.50;;;20.80;93.80;;;;;;6185747;23;45289;-73
2022/10/23 09:22:37;;;;;;;0.60;0.43;;;20.80;93.60;;;;;;6185744;23;45262;-73
2022/10/23 09:25:09;;;;;;;0.52;0.50;;;20.70;93.60;;;;;;6185281;23;48011;-73
2022/10/23 09:27:36;;;;;;;1.45;0.55;;;20.70;93.60;;;;;;6185681;23;45292;-72
2022/10/23 09:30:05;;;;;;;1.38;0.40;;;20.70;93.50;;;;;;6185791;23;45307;-73
2022/10/23 09:32:34;;;;;;;1.15;0.70;;;20.70;93.70;;;;;;6185099;23;45507;-72
2022/10/23 09:35:01;;;;;;;0.47;0.40;;;20.70;93.70;;;;;;6184830;23;48529;-73
2022/10/23 09:37:29;;;;;;;1.38;0.65;;;20.70;93.50;;;;;;6185748;23;45423;-73
2022/10/23 09:40:12;;;;;;;1.35;0.80;;;20.70;93.70;;;;;;6185861;23;45497;-73
2022/10/23 09:42:50;;;;;;;1.55;0.40;;;20.70;93.90;;;;;;6185552;23;45161;-73
2022/10/23 09:45:24;;;;;;;0.40;0.40;;;20.70;94.30;;;;;;6184549;23;48320;-73
2022/10/23 09:47:51;;;;;;;1.88;0.88;;;20.70;94.40;;;;;;6185340;23;45350;-73
2022/10/23 09:50:25;;;;;;;0.68;0.43;;;20.70;94.30;;;;;;6185627;23;45183;-73
2022/10/23 09:52:54;;;;;;;0.75;0.60;;;20.70;94.30;;;;;;6184642;23;45221;-72
2022/10/23 09:55:24;;;;;;;0.77;0.55;;;20.70;94.40;;;;;;6185019;23;47591;-73
2022/10/23 09:57:52;;;;;;;0.95;0.50;;;20.70;94.60;;;;;;6184622;23;45236;-73
2022/10/23 10:00:21;;;;;;;0.50;0.43;;;20.70;94.60;;;;;;6185131;23;45250;-73
2022/10/23 10:02:58;;;;;;;2.10;0.45;;;20.70;94.50;;;;;;6185573;23;45536;-73
2022/10/23 10:05:27;;;;;;;0.75;0.50;;;20.70;94.50;;;;;;6184863;23;46248;-73
2022/10/23 10:08:00;;;;;;;0.65;0.35;;;20.70;94.60;;;;;;6185287;23;45260;-73
2022/10/23 10:10:31;;;;;;;1.13;0.50;;;20.70;94.50;;;;;;6184980;23;45262;-73
2022/10/23 10:13:03;;;;;;;2.67;0.50;;;20.70;94.60;;;;;;6187795;23;45357;-72
2022/10/23 10:15:35;;;;;;;0.85;0.52;;;20.70;94.60;;;;;;6187006;23;46355;-73
2022/10/23 10:18:14;;;;;;;0.40;0.40;;;20.70;94.60;;;;;;6188339;23;45154;-73
2022/10/23 10:20:56;;;;;;;3.08;0.68;;;20.70;94.60;;;;;;6186390;23;45389;-69
2022/10/23 10:23:29;;;;;;;1.77;0.80;;;20.70;94.70;;;;;;6184585;23;45512;-69
2022/10/23 10:26:07;;;;;;;2.60;0.80;;;20.70;95.30;;;;;;6185620;23;47978;-67
2022/10/23 10:28:53;;;;;;;3.38;0.70;;;20.70;96.40;;;;;;6183548;23;45286;-69
2022/10/23 10:31:25;;;;;;;2.35;0.60;;;20.70;96.80;;;;;;6184138;23;45356;-69
2022/10/23 10:34:06;;;;;;;4.10;0.80;;;20.70;96.40;;;;;;6185099;23;45440;-69
2022/10/23 10:36:49;;;;;;;2.05;0.63;;;20.70;96.40;;;;;;6184554;23;45253;-69
2022/10/23 10:39:27;;;;;;;2.35;0.73;;;20.60;96.50;;;;;;6185063;23;45208;-69
2022/10/23 10:42:07;;;;;;;0.65;0.47;;;20.60;96.50;;;;;;6185084;23;45237;-69
2022/10/23 10:44:47;;;;;;;0.88;0.50;;;20.60;96.70;;;;;;6185713;23;45349;-69
2022/10/23 10:47:21;;;;;;;0.88;0.45;;;20.60;96.80;;;;;;6182532;23;48288;-69
2022/10/23 10:49:58;;;;;;;0.85;0.50;;;20.60;96.90;;;;;;6185433;23;45359;-69
2022/10/23 10:52:32;;;;;;;0.77;0.60;;;20.60;97.00;;;;;;6183750;23;45316;-69
2022/10/23 10:55:10;;;;;;;1.70;0.65;;;20.60;97.10;;;;;;6185305;23;45338;-68
2022/10/23 10:57:41;;;;;;;0.77;0.50;;;20.60;97.20;;;;;;6183807;23;46590;-69
2022/10/23 11:00:14;;;;;;;0.98;0.43;;;20.60;97.30;;;;;;6184365;23;45333;-69
2022/10/23 11:02:46;;;;;;;1.25;0.70;;;20.60;97.30;;;;;;6184856;23;45211;-69
2022/10/23 11:05:21;;;;;;;1.67;1.08;;;20.60;97.50;;;;;;6184676;23;45317;-69
2022/10/23 11:07:55;;;;;;;0.63;0.43;;;20.60;97.50;;;;;;6183993;23;46393;-69
2022/10/23 11:10:22;;;;;;;1.13;0.60;;;20.60;97.60;;;;;;6184699;23;45597;-69
2022/10/23 11:12:49;;;;;;;1.13;0.50;;;20.60;97.70;;;;;;6184292;23;45405;-69
2022/10/23 11:15:19;;;;;;;0.98;0.40;;;20.60;97.70;;;;;;6185065;23;45426;-70
2022/10/23 11:17:48;;;;;;;0.65;0.40;;;20.60;97.70;;;;;;6183809;23;47067;-70
2022/10/23 11:20:41;;;;;;;0.95;0.50;;;20.60;97.70;;;;;;6185446;23;45444;-69
2022/10/23 11:23:33;;;;;;;1.08;0.50;;;20.60;97.80;;;;;;6184872;23;45277;-69
2022/10/23 11:26:12;;;;;;;1.85;0.80;;;20.60;97.90;;;;;;6184710;23;45269;-69
2022/10/23 11:29:09;;;;;;;1.02;0.50;;;20.50;97.80;;;;;;6181735;23;45261;-69
2022/10/23 11:31:44;;;;;;;2.90;0.50;;;20.50;97.60;;;;;;6183134;23;45405;-70
2022/10/23 11:34:29;;;;;;;0.55;0.30;;;20.60;97.40;;;;;;6182382;23;45280;-70
2022/10/23 11:37:00;;;;;;;0.68;0.50;;;20.50;97.50;;;;;;6182300;23;45423;-69
2022/10/23 11:39:29;;;;;;;1.10;0.45;;;20.60;97.30;;;;;;6182607;23;46236;-69
2022/10/23 11:41:57;;;;;;;0.65;0.40;;;20.60;97.60;;;;;;6182464;23;45425;-69
2022/10/23 11:44:40;;;;;;;1.58;0.70;;;20.50;97.70;;;;;;6181025;23;45304;-70
2022/10/23 11:47:26;;;;;;;0.88;0.50;;;20.60;98.20;;;;;;6178454;23;45312;-69
2022/10/23 11:50:18;;;;;;;0.40;0.40;;;20.60;98.40;;;;;;6181156;23;46209;-69
2022/10/23 11:53:03;;;;;;;0.50;0.43;;;20.50;98.40;;;;;;6175797;23;45417;-69
2022/10/23 11:55:32;;;;;;;2.10;0.43;;;20.50;98.50;;;;;;6183738;23;45305;-70
2022/10/23 11:58:22;;;;;;;0.40;0.40;;;20.50;98.40;;;;;;6180938;23;45387;-69
2022/10/23 12:00:58;;;;;;;0.93;0.55;;;20.50;98.50;;;;;;6182757;23;45437;-69
2022/10/23 12:03:30;;;;;;;0.63;0.50;;;20.50;98.50;;;;;;6183154;23;46272;-71
2022/10/23 12:06:00;;;;;;;0.70;0.50;;;20.50;98.50;;;;;;6182182;23;45230;-69
2022/10/23 12:08:30;;;;;;;1.00;0.45;;;20.50;98.50;;;;;;6182733;23;45376;-69
2022/10/23 12:10:57;;;;;;;0.50;0.30;;;20.60;98.50;;;;;;6182372;23;48536;-70
2022/10/23 12:13:44;;;;;;;0.30;0.30;;;20.60;98.50;;;;;;6183082;23;45476;-69
2022/10/23 12:16:11;;;;;;;1.05;0.40;;;20.60;98.50;;;;;;6183375;23;45370;-70
2022/10/23 12:18:50;;;;;;;0.88;0.50;;;20.60;98.60;;;;;;6182078;23;45454;-69
2022/10/23 12:21:20;;;;;;;1.08;0.55;;;20.60;98.70;;;;;;6182654;23;46392;-70
2022/10/23 12:24:06;;;;;;;1.15;0.60;;;20.60;98.70;;;;;;6182396;23;45309;-69
2022/10/23 12:26:57;;;;;;;0.40;0.30;;;20.60;98.90;;;;;;6183114;23;45365;-70
2022/10/23 12:29:48;;;;;;;1.08;0.45;;;20.60;98.90;;;;;;6177470;23;45473;-70
2022/10/23 12:32:32;;;;;;;0.63;0.30;;;20.60;99.00;;;;;;6182655;23;45435;-69
2022/10/23 12:35:15;;;;;;;1.25;0.73;;;20.60;99.10;;;;;;6182675;23;45256;-69
2022/10/23 12:37:54;;;;;;;0.65;0.28;;;20.60;99.20;;;;;;6181565;23;45389;-69
2022/10/23 12:40:28;;;;;;;0.88;0.40;;;20.60;99.10;;;;;;6182179;23;45316;-70
2022/10/23 12:42:57;;;;;;;1.40;0.50;;;20.60;99.70;;;;;;6182227;23;46656;-69
2022/10/23 12:45:26;;;;;;;0.85;0.60;;;20.60;99.20;;;;;;6185503;23;45253;-69
2022/10/23 12:47:53;;;;;;;0.50;0.40;;;20.60;99.20;;;;;;6180565;23;45271;-69
2022/10/23 12:50:22;;;;;;;1.45;0.43;;;20.60;99.30;;;;;;6182060;23;45426;-69
2022/10/23 12:52:57;;;;;;;0.28;0.28;;;20.60;99.40;;;;;;6182328;23;45314;-70
2022/10/23 12:55:27;;;;;;;0.77;0.40;;;20.60;99.30;;;;;;6182579;23;45288;-70
2022/10/23 12:57:54;;;;;;;0.40;0.25;;;20.60;99.40;;;;;;6182583;23;45437;-69
2022/10/23 13:00:23;;;;;;;0.55;0.32;;;20.60;99.50;;;;;;6181974;23;45656;-69
2022/10/23 13:02:58;;;;;;;0.40;0.40;;;20.60;99.60;;;;;;6182487;23;47692;-69
2022/10/23 13:05:26;;;;;;;1.05;0.30;;;20.60;99.70;;;;;;6182235;23;45601;-69